Time;durP1;ratioP1;P1;durP2;ratioP2;P2;SDS_P1;SDS_P2;PMS_P1;PMS_P2;Temp;Humidity;BMP_temperature;BMP_pressure;BME280_temperature;BME280_humidity;BME280_pressure;Samples;Min_cycle;Max_cycle;Signal;HPM_P1;HPM_P2
2021/12/12 00:06:53;;;;;;;8.13;5.80;;;23.00;63.20;;;;;;31644531;28;20051;-61
2021/12/12 00:21:58;;;;;;;6.80;5.18;;;22.90;63.30;;;;;;31640232;28;20059;-60
2021/12/12 00:37:00;;;;;;;9.35;5.47;;;22.90;63.40;;;;;;31747241;28;20051;-54
2021/12/12 00:52:04;;;;;;;18.98;12.75;;;22.90;63.40;;;;;;31689899;28;20040;-61
2021/12/12 01:07:12;;;;;;;8.27;6.22;;;22.90;63.30;;;;;;31690911;28;20045;-58
2021/12/12 01:22:26;;;;;;;6.13;4.30;;;22.80;63.30;;;;;;31711857;28;20072;-57
2021/12/12 01:52:36;;;;;;;1.95;1.63;;;23.20;63.40;;;;;;31711948;28;20049;-58
2021/12/12 02:07:41;;;;;;;2.10;1.23;;;23.40;63.30;;;;;;31669844;28;20128;-58
2021/12/12 02:37:54;;;;;;;0.57;0.52;;;23.10;64.00;;;;;;31613933;28;20041;-55
2021/12/12 02:53:01;;;;;;;0.28;0.28;;;23.00;63.90;;;;;;31594077;28;20048;-55
2021/12/12 03:08:04;;;;;;;0.20;0.20;;;23.00;63.70;;;;;;31567268;28;20131;-57
2021/12/12 03:23:09;;;;;;;0.25;0.25;;;22.90;64.00;;;;;;31581521;28;20060;-56
2021/12/12 03:38:11;;;;;;;0.20;0.20;;;22.90;64.10;;;;;;31660135;28;20059;-53
2021/12/12 03:53:14;;;;;;;0.10;0.10;;;22.90;64.10;;;;;;31658674;28;20040;-56
2021/12/12 04:08:17;;;;;;;2.08;0.10;;;23.00;64.80;;;;;;31716647;28;20047;-55
2021/12/12 04:23:22;;;;;;;0.10;0.10;;;23.40;65.50;;;;;;31634424;28;20086;-52
2021/12/12 04:38:24;;;;;;;0.75;0.10;;;23.30;64.60;;;;;;31682081;28;20097;-53
2021/12/12 04:53:33;;;;;;;0.10;0.10;;;23.10;64.70;;;;;;31669346;28;20481;-52
2021/12/12 05:08:47;;;;;;;0.00;0.00;;;23.00;64.70;;;;;;31620990;28;20074;-54
2021/12/12 05:23:52;;;;;;;0.10;0.10;;;22.90;64.70;;;;;;31597344;28;20049;-48
2021/12/12 05:38:57;;;;;;;0.10;0.10;;;22.90;64.60;;;;;;31643994;28;20099;-61
2021/12/12 05:54:00;;;;;;;0.10;0.10;;;22.90;64.60;;;;;;31715252;28;20040;-61
2021/12/12 06:09:06;;;;;;;0.15;0.15;;;22.80;64.60;;;;;;31676016;28;20052;-53
2021/12/12 06:24:08;;;;;;;0.10;0.10;;;23.00;66.10;;;;;;31686681;28;20101;-51
2021/12/12 06:39:11;;;;;;;0.10;0.10;;;23.40;65.50;;;;;;31573328;28;20065;-53
2021/12/12 06:54:16;;;;;;;0.10;0.10;;;23.30;64.60;;;;;;31702935;28;20091;-53
2021/12/12 07:09:20;;;;;;;0.10;0.10;;;23.20;65.00;;;;;;31646082;28;20104;-55
2021/12/12 07:24:23;;;;;;;0.10;0.10;;;23.10;65.00;;;;;;31623967;28;20140;-61
2021/12/12 07:39:27;;;;;;;1.70;0.60;;;23.00;64.90;;;;;;31566977;28;20060;-48
2021/12/12 07:54:31;;;;;;;7.07;1.02;;;22.90;64.70;;;;;;31561761;28;20041;-46
2021/12/12 08:09:33;;;;;;;6.68;1.95;;;22.70;63.90;;;;;;31539235;28;20050;-55
2021/12/12 08:24:37;;;;;;;5.80;1.60;;;23.00;64.10;;;;;;31628078;28;20068;-56
2021/12/12 08:39:39;;;;;;;7.15;1.33;;;23.20;63.30;;;;;;31541772;28;20130;-55
2021/12/12 08:54:44;;;;;;;2.65;1.25;;;23.10;63.70;;;;;;31583464;28;20040;-56
2021/12/12 09:09:56;;;;;;;9.10;2.38;;;23.00;63.80;;;;;;31609020;28;20062;-58
2021/12/12 09:25:11;;;;;;;8.43;2.67;;;23.00;64.90;;;;;;31681083;28;20064;-59
2021/12/12 09:40:22;;;;;;;13.35;2.92;;;22.90;65.50;;;;;;31666822;28;20099;-58
2021/12/12 09:55:37;;;;;;;7.82;3.08;;;22.90;65.50;;;;;;31650291;28;20041;-59
2021/12/12 10:10:58;;;;;;;10.40;3.72;;;23.10;64.90;;;;;;31632181;28;20110;-61
2021/12/12 10:26:16;;;;;;;8.98;3.63;;;23.20;64.90;;;;;;31703226;28;20085;-60
2021/12/12 10:41:28;;;;;;;8.90;4.13;;;23.20;64.60;;;;;;31642368;28;20183;-60
2021/12/12 10:56:58;;;;;;;13.70;4.18;;;23.00;64.80;;;;;;31714628;28;20087;-60
2021/12/12 11:12:13;;;;;;;10.02;4.32;;;23.00;64.90;;;;;;31759912;28;20044;-60
2021/12/12 11:27:24;;;;;;;7.90;3.55;;;22.90;64.90;;;;;;31694711;28;20056;-60
2021/12/12 11:42:34;;;;;;;10.23;4.57;;;23.00;64.60;;;;;;31720737;28;20096;-60
2021/12/12 11:57:54;;;;;;;6.85;4.00;;;23.30;64.20;;;;;;31683155;28;20036;-60
2021/12/12 12:13:04;;;;;;;7.20;2.73;;;23.20;64.10;;;;;;31608883;28;20060;-60
2021/12/12 12:28:08;;;;;;;6.32;3.30;;;23.00;64.40;;;;;;31637306;28;20070;-57
2021/12/12 12:43:48;;;;;;;7.20;3.88;;;22.90;64.30;;;;;;31536108;28;20064;-57
2021/12/12 12:59:19;;;;;;;5.05;2.80;;;22.90;64.70;;;;;;31594601;28;20105;-48
2021/12/12 13:14:47;;;;;;;6.72;3.00;;;22.90;65.60;;;;;;31573746;28;20080;-51
2021/12/12 13:30:12;;;;;;;6.22;2.70;;;22.90;65.90;;;;;;31610332;28;20056;-49
2021/12/12 13:45:52;;;;;;;6.40;2.92;;;22.80;65.90;;;;;;31599565;28;20079;-61
2021/12/12 14:01:08;;;;;;;5.72;2.47;;;22.80;65.50;;;;;;31591814;28;20062;-59
2021/12/12 14:16:24;;;;;;;4.85;2.47;;;23.10;64.60;;;;;;31673794;28;20044;-61
2021/12/12 14:31:30;;;;;;;5.90;2.42;;;23.20;64.20;;;;;;31667133;28;20074;-61
2021/12/12 14:46:38;;;;;;;10.40;2.13;;;23.00;64.30;;;;;;31677178;28;20052;-59
2021/12/12 15:01:48;;;;;;;4.00;2.17;;;23.00;64.30;;;;;;31632470;28;20068;-60
2021/12/12 15:16:51;;;;;;;2.97;1.90;;;22.90;64.10;;;;;;31618435;28;20051;-60
2021/12/12 15:32:03;;;;;;;4.70;2.30;;;22.80;64.20;;;;;;31578500;28;20059;-43
2021/12/12 15:47:14;;;;;;;4.32;2.15;;;23.00;63.60;;;;;;31624846;28;20055;-49
2021/12/12 16:02:41;;;;;;;4.28;2.00;;;23.10;63.50;;;;;;31624373;28;20048;-42
2021/12/12 16:17:53;;;;;;;4.93;1.85;;;23.10;63.70;;;;;;31681470;28;20047;-46
2021/12/12 16:32:59;;;;;;;6.53;2.42;;;23.00;64.30;;;;;;31764574;28;20052;-44
2021/12/12 16:48:07;;;;;;;8.13;2.20;;;23.00;65.00;;;;;;31683906;28;20115;-48
2021/12/12 17:03:47;;;;;;;7.25;2.60;;;22.90;65.60;;;;;;31679508;28;20123;-60
2021/12/12 17:18:52;;;;;;;6.80;2.47;;;23.00;66.10;;;;;;31604296;28;20041;-59
2021/12/12 17:34:00;;;;;;;52.05;35.45;;;23.30;66.10;;;;;;31547190;28;20040;-49
2021/12/12 17:49:27;;;;;;;220.38;174.73;;;23.30;65.90;;;;;;31566626;28;20048;-51
2021/12/12 18:04:31;;;;;;;198.20;160.52;;;23.30;66.30;;;;;;31534943;28;20060;-40
2021/12/12 18:19:45;;;;;;;201.60;161.85;;;23.30;66.80;;;;;;31660098;28;20041;-60
2021/12/12 18:34:48;;;;;;;207.55;162.77;;;23.20;66.80;;;;;;31614428;28;20109;-44
2021/12/12 18:49:56;;;;;;;175.85;141.25;;;23.10;67.40;;;;;;31610315;28;20345;-46
2021/12/12 19:05:01;;;;;;;168.00;121.23;;;23.00;67.60;;;;;;31596119;28;20041;-45
2021/12/12 19:20:13;;;;;;;146.85;114.90;;;22.90;67.20;;;;;;31264652;28;10000173;-47
2021/12/12 19:35:18;;;;;;;146.18;108.60;;;22.90;66.90;;;;;;31572002;28;20064;-60
2021/12/12 19:50:28;;;;;;;129.70;99.35;;;22.80;67.30;;;;;;31650788;28;20041;-59
2021/12/12 20:05:30;;;;;;;107.33;81.53;;;22.80;66.90;;;;;;31593658;28;20095;-62
2021/12/12 20:20:35;;;;;;;106.80;78.32;;;22.80;66.80;;;;;;31714144;28;20044;-48
2021/12/12 20:35:46;;;;;;;96.97;69.43;;;22.70;67.20;;;;;;31651175;28;20040;-48
2021/12/12 20:50:54;;;;;;;86.47;62.22;;;22.70;67.60;;;;;;31707585;28;20051;-48
2021/12/12 21:06:11;;;;;;;72.50;51.60;;;22.70;67.30;;;;;;31636915;28;20044;-53
2021/12/12 21:21:16;;;;;;;62.63;46.30;;;22.60;66.50;;;;;;31555993;28;20082;-48
2021/12/12 21:36:27;;;;;;;51.53;37.80;;;22.90;66.20;;;;;;31560095;28;20092;-58
2021/12/12 21:51:31;;;;;;;44.85;33.03;;;23.20;65.90;;;;;;31640843;28;20135;-59
2021/12/12 22:06:45;;;;;;;36.08;26.58;;;23.20;65.70;;;;;;31621133;28;20044;-47
2021/12/12 22:21:51;;;;;;;33.30;23.52;;;23.20;65.80;;;;;;31620322;28;20123;-48
2021/12/12 22:36:58;;;;;;;29.05;21.10;;;23.20;65.50;;;;;;31613480;28;20048;-46
2021/12/12 22:52:15;;;;;;;25.60;18.50;;;23.20;65.70;;;;;;31616817;28;20074;-48
2021/12/12 23:07:19;;;;;;;15.20;11.55;;;23.00;65.50;;;;;;31659677;28;20068;-45
2021/12/12 23:22:29;;;;;;;7.80;5.60;;;23.10;65.60;;;;;;31612665;28;20103;-46
2021/12/12 23:37:40;;;;;;;7.93;3.75;;;23.00;65.50;;;;;;31683741;28;20056;-39
2021/12/12 23:52:47;;;;;;;3.42;2.65;;;23.00;65.70;;;;;;31706934;28;20051;-47
